createdAt,value
2022-09-17T00:02:54.727Z,13.41
2022-09-17T00:06:01.580Z,13.34
2022-09-17T00:09:04.994Z,13.28
2022-09-17T00:12:07.575Z,13.19
2022-09-17T00:15:10.035Z,13.20
2022-09-17T00:18:13.191Z,13.20
2022-09-17T00:21:18.955Z,13.23
2022-09-17T00:24:21.744Z,13.26
2022-09-17T00:27:24.038Z,13.26
2022-09-17T00:30:28.206Z,13.35
2022-09-17T00:33:30.447Z,13.28
2022-09-17T00:36:36.684Z,13.29
2022-09-17T00:39:38.996Z,13.36
2022-09-17T00:42:41.566Z,13.42
2022-09-17T00:45:43.846Z,13.40
2022-09-17T00:48:46.817Z,13.51
2022-09-17T00:51:51.954Z,13.48
2022-09-17T00:54:58.066Z,13.51
2022-09-17T00:58:02.770Z,13.53
2022-09-17T01:01:06.084Z,13.50
2022-09-17T01:04:15.547Z,13.44
2022-09-17T01:07:35.727Z,13.46
2022-09-17T01:10:58.228Z,13.50
2022-09-17T01:14:13.037Z,13.51
2022-09-17T01:17:20.287Z,13.54
2022-09-17T01:20:42.210Z,13.54
2022-09-17T01:24:12.840Z,13.65
2022-09-17T01:27:34.532Z,13.56
2022-09-17T01:30:40.067Z,13.56
2022-09-17T01:33:45.758Z,13.54
2022-09-17T01:37:11.376Z,13.56
2022-09-17T01:40:26.274Z,13.55
2022-09-17T01:43:38.962Z,13.54
2022-09-17T01:46:49.333Z,13.47
2022-09-17T01:49:54.126Z,13.50
2022-09-17T01:52:57.529Z,13.49
2022-09-17T01:56:00.670Z,13.44
2022-09-17T01:59:07.592Z,13.50
2022-09-17T02:02:13.543Z,13.49
2022-09-17T02:05:29.224Z,13.50
2022-09-17T02:08:37.102Z,13.44
2022-09-17T02:11:42.137Z,13.50
2022-09-17T02:14:56.703Z,13.46
2022-09-17T02:18:05.161Z,13.42
2022-09-17T02:21:08.402Z,13.41
2022-09-17T02:24:10.624Z,13.36
2022-09-17T02:27:25.731Z,13.34
2022-09-17T02:30:30.694Z,13.35
2022-09-17T02:33:34.468Z,13.29
2022-09-17T02:36:37.098Z,13.28
2022-09-17T02:39:39.899Z,13.23
2022-09-17T02:42:51.171Z,13.25
2022-09-17T02:45:56.448Z,13.21
2022-09-17T02:49:04.776Z,13.12
2022-09-17T02:52:17.717Z,13.12
2022-09-17T02:55:26.553Z,13.13
2022-09-17T02:58:29.033Z,13.07
2022-09-17T03:01:31.229Z,13.08
2022-09-17T03:04:34.775Z,13.01
2022-09-17T03:07:37.431Z,13.07
2022-09-17T03:10:41.288Z,13.03
2022-09-17T03:13:43.682Z,13.03
2022-09-17T03:16:46.668Z,12.95
2022-09-17T03:19:49.051Z,12.93
2022-09-17T03:22:52.035Z,12.90
2022-09-17T03:25:55.174Z,12.94
2022-09-17T03:28:58.990Z,12.86
2022-09-17T03:32:01.551Z,12.87
2022-09-17T03:35:04.159Z,12.83
2022-09-17T03:38:06.599Z,12.78
2022-09-17T03:41:09.479Z,12.85
2022-09-17T03:44:11.746Z,12.79
2022-09-17T03:47:16.815Z,12.84
2022-09-17T03:50:19.545Z,12.78
2022-09-17T03:53:22.088Z,12.83
2022-09-17T03:56:24.536Z,12.77
2022-09-17T03:59:27.416Z,12.66
2022-09-17T04:02:29.681Z,12.69
2022-09-17T04:05:32.332Z,12.77
2022-09-17T04:08:34.577Z,12.71
2022-09-17T04:11:37.085Z,12.69
2022-09-17T04:14:39.330Z,12.71
2022-09-17T04:17:41.951Z,12.68
2022-09-17T04:20:44.632Z,12.70
2022-09-17T04:23:47.988Z,12.62
2022-09-17T04:26:50.301Z,12.61
2022-09-17T04:29:52.913Z,12.59
2022-09-17T04:32:55.385Z,12.57
2022-09-17T04:35:57.897Z,12.58
2022-09-17T04:39:00.313Z,12.64
2022-09-17T04:42:02.819Z,12.57
2022-09-17T04:45:05.312Z,12.60
2022-09-17T04:48:07.889Z,12.61
2022-09-17T04:51:10.403Z,12.55
2022-09-17T04:54:12.907Z,12.54
2022-09-17T04:57:15.202Z,12.57
2022-09-17T05:00:18.967Z,12.59
2022-09-17T05:03:21.173Z,12.65
2022-09-17T05:06:23.751Z,12.65
2022-09-17T05:09:26.771Z,12.59
2022-09-17T05:12:33.725Z,12.62
2022-09-17T05:15:36.800Z,12.58
2022-09-17T05:18:39.402Z,12.71
2022-09-17T05:21:41.685Z,12.64
2022-09-17T05:24:44.203Z,12.63
2022-09-17T05:27:46.564Z,12.63
2022-09-17T05:30:49.134Z,12.59
2022-09-17T05:33:51.377Z,12.62
2022-09-17T05:36:54.192Z,12.59
2022-09-17T05:39:56.526Z,12.69
2022-09-17T05:43:03.539Z,12.70
2022-09-17T05:46:06.630Z,12.76
2022-09-17T05:49:09.263Z,12.68
2022-09-17T05:52:11.519Z,12.69
2022-09-17T05:55:14.111Z,12.69
2022-09-17T05:58:17.497Z,12.77
2022-09-17T06:01:20.017Z,12.72
2022-09-17T06:04:22.744Z,12.70
2022-09-17T06:07:25.031Z,12.68
2022-09-17T06:10:28.350Z,12.67
2022-09-17T06:13:31.037Z,12.73
2022-09-17T06:16:33.663Z,12.78
2022-09-17T06:19:36.033Z,12.76
2022-09-17T06:22:38.638Z,12.74
2022-09-17T06:25:40.872Z,12.76
2022-09-17T06:28:43.713Z,12.78
2022-09-17T06:31:47.800Z,12.82
2022-09-17T06:34:50.449Z,12.87
2022-09-17T06:37:52.663Z,12.87
2022-09-17T06:40:55.598Z,12.95
2022-09-17T06:43:57.931Z,12.97
2022-09-17T06:47:00.536Z,12.93
2022-09-17T06:50:03.109Z,12.87
2022-09-17T06:53:06.226Z,12.89
2022-09-17T06:56:09.118Z,12.91
2022-09-17T06:59:11.643Z,13.04
2022-09-17T07:02:14.062Z,13.13
2022-09-17T07:05:16.631Z,13.10
2022-09-17T07:08:18.869Z,13.05
2022-09-17T07:11:24.737Z,13.08
2022-09-17T07:14:27.100Z,13.09
2022-09-17T07:17:29.871Z,13.14
2022-09-17T07:20:32.458Z,13.15
2022-09-17T07:23:36.477Z,13.20
2022-09-17T07:26:38.776Z,13.28
2022-09-17T07:29:41.473Z,13.25
2022-09-17T07:32:43.857Z,13.47
2022-09-17T07:35:56.164Z,13.68
2022-09-17T07:38:58.528Z,13.78
2022-09-17T07:42:01.244Z,13.94
2022-09-17T07:45:03.681Z,13.97
2022-09-17T07:48:06.183Z,14.16
2022-09-17T07:51:08.552Z,14.48
2022-09-17T07:54:11.192Z,14.45
2022-09-17T07:57:13.974Z,14.33
2022-09-17T08:00:16.718Z,14.58
2022-09-17T08:03:19.335Z,14.61
2022-09-17T08:06:22.876Z,14.45
2022-09-17T08:09:25.569Z,14.37
2022-09-17T08:12:27.992Z,14.28
2022-09-17T08:15:30.637Z,14.16
2022-09-17T08:18:33.304Z,14.24
2022-09-17T08:21:36.627Z,14.18
2022-09-17T08:24:38.963Z,14.16
2022-09-17T08:27:41.580Z,14.17
2022-09-17T08:30:46.499Z,14.19
2022-09-17T08:33:49.159Z,14.24
2022-09-17T08:36:51.435Z,14.37
2022-09-17T08:39:54.057Z,14.34
2022-09-17T08:43:00.514Z,14.37
2022-09-17T08:46:03.199Z,14.29
2022-09-17T08:49:29.929Z,14.26
2022-09-17T08:52:38.522Z,14.34
2022-09-17T08:55:46.914Z,14.28
2022-09-17T08:58:49.512Z,14.07
2022-09-17T09:02:07.199Z,14.09
2022-09-17T09:05:09.808Z,14.11
2022-09-17T09:08:16.393Z,14.08
2022-09-17T09:11:26.265Z,14.16
2022-09-17T09:14:33.734Z,14.08
2022-09-17T09:17:41.854Z,13.89
2022-09-17T09:21:08.739Z,13.84
2022-09-17T09:24:14.658Z,13.75
2022-09-17T09:27:18.323Z,13.81
2022-09-17T09:30:23.747Z,13.81
2022-09-17T09:33:28.005Z,13.78
2022-09-17T09:36:32.642Z,13.83
2022-09-17T09:39:41.228Z,13.89
2022-09-17T09:42:46.482Z,14.18
2022-09-17T09:45:51.531Z,14.56
2022-09-17T09:49:03.027Z,14.81
2022-09-17T09:52:20.646Z,15.00
2022-09-17T09:55:36.595Z,14.97
2022-09-17T09:58:40.371Z,14.75
2022-09-17T10:01:44.220Z,14.73
2022-09-17T10:04:51.412Z,14.73
2022-09-17T10:07:55.725Z,14.77
2022-09-17T10:11:01.007Z,14.74
2022-09-17T10:14:23.768Z,14.56
2022-09-17T10:17:26.719Z,14.52
2022-09-17T10:20:29.378Z,14.58
2022-09-17T10:23:36.624Z,14.85
2022-09-17T10:26:38.958Z,14.93
2022-09-17T10:29:46.060Z,14.87
2022-09-17T10:33:06.960Z,14.86
2022-09-17T10:36:12.999Z,14.78
2022-09-17T10:39:18.538Z,14.97
2022-09-17T10:42:22.073Z,15.27
2022-09-17T10:45:25.795Z,15.31
2022-09-17T10:48:32.324Z,15.08
2022-09-17T10:51:34.857Z,14.96
2022-09-17T10:54:54.254Z,15.11
2022-09-17T10:58:08.688Z,15.17
2022-09-17T11:01:14.445Z,15.07
2022-09-17T11:04:30.839Z,15.06
2022-09-17T11:07:44.755Z,14.92
2022-09-17T11:10:51.413Z,15.07
2022-09-17T11:14:14.294Z,15.20
2022-09-17T11:17:28.724Z,15.06
2022-09-17T11:20:31.657Z,14.89
2022-09-17T11:23:52.810Z,14.81
2022-09-17T11:27:24.783Z,14.86
2022-09-17T11:30:34.441Z,14.93
2022-09-17T11:33:50.315Z,14.80
2022-09-17T11:37:04.528Z,14.74
2022-09-17T11:40:07.398Z,14.63
2022-09-17T11:43:17.747Z,14.76
2022-09-17T11:46:22.935Z,15.06
2022-09-17T11:49:43.795Z,15.29
2022-09-17T11:52:52.413Z,15.28
2022-09-17T11:56:00.230Z,14.99
2022-09-17T11:59:05.805Z,15.13
2022-09-17T12:02:10.903Z,15.00
2022-09-17T12:05:16.238Z,14.84
2022-09-17T12:08:21.568Z,14.89
2022-09-17T12:11:24.301Z,14.86
2022-09-17T12:14:49.977Z,15.12
2022-09-17T12:18:20.517Z,15.44
2022-09-17T12:21:23.200Z,15.43
2022-09-17T12:24:30.012Z,15.03
2022-09-17T12:27:43.933Z,14.90
2022-09-17T12:30:54.513Z,14.98
2022-09-17T12:34:32.240Z,15.04
2022-09-17T12:37:42.748Z,14.88
2022-09-17T12:40:45.233Z,14.87
2022-09-17T12:43:56.544Z,14.86
2022-09-17T12:47:01.894Z,14.64
2022-09-17T12:50:08.581Z,14.57
2022-09-17T12:53:29.059Z,14.62
2022-09-17T12:56:31.555Z,14.63
2022-09-17T12:59:36.293Z,14.67
2022-09-17T13:02:49.461Z,14.65
2022-09-17T13:05:57.370Z,14.58
2022-09-17T13:09:12.060Z,14.48
2022-09-17T13:12:22.056Z,14.46
2022-09-17T13:15:33.977Z,14.36
2022-09-17T13:19:15.134Z,14.28
2022-09-17T13:22:19.042Z,14.39
2022-09-17T13:25:22.242Z,14.35
2022-09-17T13:28:36.211Z,14.39
2022-09-17T13:31:38.561Z,14.42
2022-09-17T13:34:41.253Z,14.32
2022-09-17T13:37:43.527Z,14.36
2022-09-17T13:40:46.735Z,14.32
2022-09-17T13:43:49.056Z,14.26
2022-09-17T13:46:52.742Z,14.24
2022-09-17T13:49:58.844Z,14.15
2022-09-17T13:53:14.719Z,14.16
2022-09-17T13:56:37.301Z,14.15
2022-09-17T13:59:51.471Z,14.10
2022-09-17T14:02:53.898Z,14.05
2022-09-17T14:06:05.750Z,14.03
2022-09-17T14:09:27.954Z,14.08
2022-09-17T14:12:48.666Z,14.09
2022-09-17T14:15:55.846Z,14.06
2022-09-17T14:19:00.402Z,14.14
2022-09-17T14:22:12.649Z,14.08
2022-09-17T14:25:16.564Z,13.98
2022-09-17T14:28:39.696Z,13.95
2022-09-17T14:31:42.454Z,13.95
2022-09-17T14:34:45.594Z,13.92
2022-09-17T14:37:54.756Z,13.79
2022-09-17T14:40:59.112Z,13.71
2022-09-17T14:44:01.784Z,13.77
2022-09-17T14:47:08.296Z,13.65
2022-09-17T14:50:24.833Z,13.58
2022-09-17T14:53:27.133Z,13.59
2022-09-17T14:56:29.673Z,13.60
2022-09-17T14:59:37.944Z,13.54
2022-09-17T15:02:43.439Z,13.50
2022-09-17T15:05:47.416Z,13.48
2022-09-17T15:08:50.110Z,13.43
2022-09-17T15:11:58.423Z,13.42
2022-09-17T15:15:01.423Z,13.40
2022-09-17T15:18:04.088Z,13.38
2022-09-17T15:21:15.488Z,13.41
2022-09-17T15:24:29.901Z,13.44
2022-09-17T15:27:43.360Z,13.38
2022-09-17T15:30:50.132Z,13.43
2022-09-17T15:33:52.714Z,13.41
2022-09-17T15:37:04.557Z,13.39
2022-09-17T15:40:13.091Z,13.33
2022-09-17T15:43:27.455Z,13.30
2022-09-17T15:46:31.340Z,13.21
2022-09-17T15:49:35.166Z,13.11
2022-09-17T15:52:37.724Z,13.08
2022-09-17T15:55:58.552Z,12.98
2022-09-17T15:59:03.320Z,12.89
2022-09-17T16:02:05.649Z,12.81
2022-09-17T16:05:15.366Z,12.75
2022-09-17T16:08:19.049Z,12.69
2022-09-17T16:11:26.020Z,12.65
2022-09-17T16:14:28.235Z,12.65
2022-09-17T16:17:38.353Z,12.63
2022-09-17T16:20:41.726Z,12.62
2022-09-17T16:23:44.721Z,12.61
2022-09-17T16:26:46.972Z,12.61
2022-09-17T16:29:51.008Z,12.56
2022-09-17T16:32:54.686Z,12.55
2022-09-17T16:35:58.297Z,12.60
2022-09-17T16:39:01.138Z,12.57
2022-09-17T16:42:03.896Z,12.62
2022-09-17T16:45:07.025Z,12.59
2022-09-17T16:48:10.306Z,12.58
2022-09-17T16:51:14.381Z,12.58
2022-09-17T16:54:17.086Z,12.59
2022-09-17T16:57:19.351Z,12.56
2022-09-17T17:00:22.918Z,12.51
2022-09-17T17:03:25.604Z,12.43
2022-09-17T17:06:28.199Z,12.40
2022-09-17T17:09:30.521Z,12.35
2022-09-17T17:12:32.984Z,12.29
2022-09-17T17:15:40.570Z,12.25
2022-09-17T17:18:45.174Z,12.19
2022-09-17T17:21:50.481Z,12.12
2022-09-17T17:24:52.961Z,12.05
2022-09-17T17:27:55.448Z,11.93
2022-09-17T17:30:58.479Z,11.87
2022-09-17T17:34:01.022Z,11.71
2022-09-17T17:37:03.787Z,11.65
2022-09-17T17:40:10.154Z,11.60
2022-09-17T17:43:13.541Z,11.47
2022-09-17T17:46:15.982Z,11.54
2022-09-17T17:49:19.275Z,11.45
2022-09-17T17:52:21.539Z,11.39
2022-09-17T17:55:24.050Z,11.36
2022-09-17T17:58:26.782Z,11.33
2022-09-17T18:01:31.493Z,11.30
2022-09-17T18:04:34.220Z,11.34
2022-09-17T18:07:36.542Z,11.36
2022-09-17T18:10:39.418Z,11.36
2022-09-17T18:13:41.713Z,11.44
2022-09-17T18:16:44.310Z,11.53
2022-09-17T18:19:46.581Z,11.56
2022-09-17T18:22:49.150Z,11.63
2022-09-17T18:26:01.331Z,11.66
2022-09-17T18:29:07.796Z,11.73
2022-09-17T18:32:10.553Z,11.57
2022-09-17T18:35:13.123Z,11.49
2022-09-17T18:38:15.819Z,11.50
2022-09-17T18:41:18.401Z,11.36
2022-09-17T18:44:21.859Z,11.34
2022-09-17T18:47:24.683Z,11.36
2022-09-17T18:50:27.860Z,11.33
2022-09-17T18:53:31.335Z,11.28
2022-09-17T18:56:33.705Z,11.23
2022-09-17T18:59:36.394Z,11.22
2022-09-17T19:02:39.101Z,11.11
2022-09-17T19:05:41.746Z,11.17
2022-09-17T19:08:44.476Z,11.14
2022-09-17T19:11:47.165Z,11.11
2022-09-17T19:14:49.413Z,11.07
2022-09-17T19:17:53.568Z,11.04
2022-09-17T19:21:02.842Z,10.99
2022-09-17T19:24:05.488Z,10.94
2022-09-17T19:27:07.820Z,10.91
2022-09-17T19:30:11.015Z,10.96
2022-09-17T19:33:14.145Z,10.87
2022-09-17T19:36:17.558Z,10.91
2022-09-17T19:39:19.845Z,10.97
2022-09-17T19:42:23.471Z,11.07
2022-09-17T19:45:25.828Z,11.00
2022-09-17T19:48:28.905Z,10.88
2022-09-17T19:51:31.919Z,10.99
2022-09-17T19:54:36.404Z,11.04
2022-09-17T19:57:38.959Z,11.07
2022-09-17T20:00:42.885Z,11.04
2022-09-17T20:03:45.698Z,11.02
2022-09-17T20:06:50.671Z,11.03
2022-09-17T20:09:53.176Z,11.03
2022-09-17T20:12:55.635Z,11.04
2022-09-17T20:16:09.638Z,11.10
2022-09-17T20:19:13.871Z,11.14
2022-09-17T20:22:16.532Z,11.13
2022-09-17T20:25:18.847Z,11.12
2022-09-17T20:28:21.505Z,11.12
2022-09-17T20:31:25.563Z,11.11
2022-09-17T20:34:28.187Z,11.12
2022-09-17T20:38:18.552Z,11.09
2022-09-17T20:40:53.722Z,11.05
2022-09-17T20:43:56.025Z,11.10
2022-09-17T20:46:58.688Z,11.04
2022-09-17T20:50:01.555Z,11.04
2022-09-17T20:53:04.106Z,11.08
2022-09-17T20:56:07.814Z,11.15
2022-09-17T20:59:24.971Z,11.19
2022-09-17T21:02:27.587Z,11.25
2022-09-17T21:05:30.085Z,11.29
2022-09-17T21:08:32.944Z,11.30
2022-09-17T21:11:35.964Z,11.32
2022-09-17T21:14:38.906Z,11.30
2022-09-17T21:17:42.477Z,11.28
2022-09-17T21:20:45.503Z,11.30
2022-09-17T21:23:48.266Z,11.35
2022-09-17T21:26:51.853Z,11.34
2022-09-17T21:29:54.423Z,11.33
2022-09-17T21:32:56.767Z,11.32
2022-09-17T21:36:04.053Z,11.32
2022-09-17T21:39:16.391Z,11.32
2022-09-17T21:42:19.001Z,11.34
2022-09-17T21:45:21.254Z,11.37
2022-09-17T21:48:23.823Z,11.39
2022-09-17T21:51:30.827Z,11.40
2022-09-17T21:54:33.412Z,11.45
2022-09-17T21:57:35.738Z,11.42
2022-09-17T22:00:38.346Z,11.38
2022-09-17T22:03:41.660Z,11.41
2022-09-17T22:06:45.125Z,11.34
2022-09-17T22:09:47.850Z,11.24
2022-09-17T22:12:50.176Z,11.19
2022-09-17T22:15:56.277Z,11.10
2022-09-17T22:19:02.980Z,11.05
2022-09-17T22:22:05.849Z,11.01
2022-09-17T22:25:08.432Z,10.94
2022-09-17T22:28:21.066Z,10.82
2022-09-17T22:31:23.981Z,10.74
2022-09-17T22:34:26.735Z,10.70
2022-09-17T22:37:29.029Z,10.65
2022-09-17T22:40:31.625Z,10.56
2022-09-17T22:43:34.408Z,10.50
2022-09-17T22:46:41.210Z,10.45
2022-09-17T22:49:43.559Z,10.40
2022-09-17T22:52:49.074Z,10.27
2022-09-17T22:55:55.150Z,10.09
2022-09-17T22:58:58.187Z,10.03
2022-09-17T23:02:00.546Z,9.99
2022-09-17T23:05:03.198Z,10.00
2022-09-17T23:08:05.605Z,10.01
2022-09-17T23:11:09.123Z,10.04
2022-09-17T23:14:12.814Z,10.00
2022-09-17T23:17:15.281Z,10.00
2022-09-17T23:20:17.647Z,10.01
2022-09-17T23:23:24.425Z,9.98
2022-09-17T23:26:27.362Z,10.02
2022-09-17T23:29:29.871Z,10.03
2022-09-17T23:32:32.046Z,10.02
2022-09-17T23:35:35.088Z,10.07
2022-09-17T23:38:37.390Z,10.05
2022-09-17T23:41:43.134Z,10.08
2022-09-17T23:44:45.496Z,10.10
2022-09-17T23:47:48.346Z,10.14
2022-09-17T23:50:50.989Z,10.19
2022-09-17T23:53:54.477Z,10.28
2022-09-17T23:56:57.767Z,10.35
